createdAt,value
2019-01-25T00:00:38.940Z,102.77
2019-01-25T00:05:46.018Z,84.37
2019-01-25T00:10:51.754Z,86.73
2019-01-25T00:15:57.627Z,90.07
2019-01-25T00:21:03.370Z,70.87
2019-01-25T00:26:09.056Z,76.13
2019-01-25T00:31:14.930Z,72.32
2019-01-25T00:36:20.755Z,85.83
2019-01-25T00:41:26.718Z,73.20
2019-01-25T00:46:33.339Z,88.80
2019-01-25T00:51:39.589Z,75.23
2019-01-25T00:56:45.335Z,64.87
2019-01-25T01:01:51.057Z,73.37
2019-01-25T01:06:57.292Z,83.27
2019-01-25T01:12:03.679Z,68.03
2019-01-25T01:17:10.548Z,73.77
2019-01-25T01:22:16.262Z,84.65
2019-01-25T01:27:22.243Z,100.55
2019-01-25T01:32:28.568Z,93.53
2019-01-25T01:37:34.827Z,93.60
2019-01-25T01:42:40.893Z,86.70
2019-01-25T01:47:46.781Z,75.40
2019-01-25T01:52:52.515Z,71.30
2019-01-25T01:57:58.307Z,79.10
2019-01-25T02:03:04.370Z,78.77
2019-01-25T02:08:10.486Z,72.23
2019-01-25T02:13:16.500Z,76.00
2019-01-25T02:18:22.395Z,57.70
2019-01-25T02:23:28.862Z,55.47
2019-01-25T02:28:34.708Z,68.00
2019-01-25T02:33:40.752Z,80.47
2019-01-25T02:38:46.507Z,58.73
2019-01-25T02:43:52.254Z,62.27
2019-01-25T02:48:57.954Z,67.93
2019-01-25T02:54:03.758Z,54.80
2019-01-25T02:59:09.478Z,57.50
2019-01-25T03:04:15.259Z,55.25
2019-01-25T03:09:21.455Z,65.00
2019-01-25T03:14:27.215Z,66.90
2019-01-25T03:19:32.972Z,62.87
2019-01-25T03:24:39.754Z,59.97
2019-01-25T03:29:45.444Z,53.97
2019-01-25T03:34:51.302Z,62.43
2019-01-25T03:39:56.976Z,55.30
2019-01-25T03:45:02.827Z,54.37
2019-01-25T03:50:12.158Z,60.33
2019-01-25T03:55:17.891Z,60.53
2019-01-25T04:00:25.835Z,65.83
2019-01-25T04:05:31.638Z,61.73
2019-01-25T04:10:37.750Z,59.70
2019-01-25T04:15:43.810Z,56.50
2019-01-25T04:20:49.577Z,55.33
2019-01-25T04:25:55.284Z,57.07
2019-01-25T04:31:01.364Z,53.97
2019-01-25T04:36:07.257Z,60.98
2019-01-25T04:41:12.983Z,60.28
2019-01-25T04:46:19.252Z,48.93
2019-01-25T04:51:25.038Z,47.57
2019-01-25T04:56:34.793Z,50.80
2019-01-25T05:01:40.770Z,50.50
2019-01-25T05:06:46.688Z,46.93
2019-01-25T05:11:52.492Z,50.20
2019-01-25T05:16:58.238Z,53.47
2019-01-25T05:22:05.132Z,45.83
2019-01-25T05:27:10.819Z,39.07
2019-01-25T05:32:16.530Z,45.77
2019-01-25T05:37:22.299Z,41.02
2019-01-25T05:42:27.978Z,45.57
2019-01-25T05:47:33.686Z,43.13
2019-01-25T05:52:39.570Z,51.90
2019-01-25T05:57:45.720Z,55.63
2019-01-25T06:02:51.541Z,66.00
2019-01-25T06:07:57.406Z,50.93
2019-01-25T06:13:03.542Z,47.10
2019-01-25T06:18:09.406Z,47.13
2019-01-25T06:23:15.440Z,45.55
2019-01-25T06:28:21.470Z,52.23
2019-01-25T06:33:27.494Z,43.00
2019-01-25T06:38:33.596Z,39.57
2019-01-25T06:43:39.331Z,40.77
2019-01-25T06:48:45.032Z,30.67
2019-01-25T06:53:50.803Z,24.27
2019-01-25T06:58:58.150Z,18.73
2019-01-25T07:04:05.262Z,30.10
2019-01-25T07:09:10.955Z,34.80
2019-01-25T07:14:17.184Z,30.05
2019-01-25T07:19:23.092Z,29.80
2019-01-25T07:24:29.264Z,28.37
2019-01-25T07:29:34.997Z,33.53
2019-01-25T07:34:40.825Z,26.43
2019-01-25T07:39:46.922Z,47.27
2019-01-25T07:44:52.903Z,47.57
2019-01-25T07:49:58.666Z,46.47
2019-01-25T07:55:06.599Z,36.17
2019-01-25T08:00:16.954Z,36.73
2019-01-25T08:05:23.059Z,36.60
2019-01-25T08:10:28.737Z,34.13
2019-01-25T08:15:34.898Z,27.00
2019-01-25T08:20:41.120Z,29.20
2019-01-25T08:25:47.119Z,31.42
2019-01-25T08:30:53.371Z,27.23
2019-01-25T08:35:59.659Z,23.90
2019-01-25T08:41:05.815Z,64.07
2019-01-25T08:46:11.909Z,34.60
2019-01-25T08:51:17.906Z,27.40
2019-01-25T08:56:23.884Z,84.73
2019-01-25T09:01:29.963Z,36.50
2019-01-25T09:06:35.689Z,35.33
2019-01-25T09:11:41.425Z,37.27
2019-01-25T09:16:47.504Z,26.93
2019-01-25T09:21:53.480Z,37.70
2019-01-25T09:27:00.547Z,46.90
2019-01-25T09:32:06.317Z,30.67
2019-01-25T09:37:12.079Z,42.43
2019-01-25T09:42:19.276Z,33.00
2019-01-25T09:47:25.256Z,28.60
2019-01-25T09:52:30.945Z,37.50
2019-01-25T09:57:36.969Z,38.23
2019-01-25T10:02:43.195Z,29.03
2019-01-25T10:07:49.249Z,32.77
2019-01-25T10:12:55.013Z,34.03
2019-01-25T10:18:00.905Z,63.13
2019-01-25T10:23:06.823Z,35.67
2019-01-25T10:28:12.577Z,31.03
2019-01-25T10:33:18.358Z,38.60
2019-01-25T10:38:24.123Z,60.67
2019-01-25T10:43:30.034Z,40.97
2019-01-25T10:48:35.722Z,50.37
2019-01-25T10:53:41.447Z,51.27
2019-01-25T10:58:47.206Z,42.47
2019-01-25T11:03:54.521Z,46.47
2019-01-25T11:09:00.413Z,44.03
2019-01-25T11:14:06.510Z,36.10
2019-01-25T11:19:12.682Z,34.17
2019-01-25T11:24:18.681Z,39.23
2019-01-25T11:29:24.603Z,51.77
2019-01-25T11:34:33.083Z,38.93
2019-01-25T11:39:37.849Z,47.90
2019-01-25T11:44:43.921Z,219.23
2019-01-25T11:49:49.886Z,51.02
2019-01-25T11:54:55.912Z,60.90
2019-01-25T12:00:01.954Z,58.73
2019-01-25T12:05:10.333Z,39.87
2019-01-25T12:10:19.510Z,35.68
2019-01-25T12:15:25.431Z,42.37
2019-01-25T12:20:33.446Z,42.00
2019-01-25T12:25:39.570Z,49.47
2019-01-25T12:30:45.761Z,50.80
2019-01-25T12:35:51.737Z,54.23
2019-01-25T12:40:57.713Z,120.40
2019-01-25T12:46:03.795Z,52.27
2019-01-25T12:51:14.137Z,49.63
2019-01-25T12:56:19.929Z,98.03
2019-01-25T13:01:25.674Z,105.13
2019-01-25T13:06:31.643Z,95.87
2019-01-25T13:11:37.549Z,194.70
2019-01-25T13:16:43.309Z,73.17
2019-01-25T13:21:50.821Z,58.37
2019-01-25T13:26:56.633Z,55.77
2019-01-25T13:32:02.353Z,52.27
2019-01-25T13:37:08.311Z,59.70
2019-01-25T13:42:14.210Z,62.27
2019-01-25T13:47:19.932Z,74.33
2019-01-25T13:52:25.608Z,66.60
2019-01-25T13:57:31.575Z,58.13
2019-01-25T14:02:37.585Z,62.70
2019-01-25T14:07:43.542Z,75.03
2019-01-25T14:12:49.825Z,53.37
2019-01-25T14:17:55.858Z,82.97
2019-01-25T14:23:01.860Z,78.83
2019-01-25T14:28:07.694Z,74.57
2019-01-25T14:33:13.818Z,60.30
2019-01-25T14:38:19.685Z,87.93
2019-01-25T14:43:25.492Z,60.03
2019-01-25T14:48:31.299Z,66.67
2019-01-25T14:53:37.284Z,70.17
2019-01-25T14:58:43.030Z,69.00
2019-01-25T15:03:49.093Z,79.47
2019-01-25T15:08:55.277Z,111.37
2019-01-25T15:14:02.671Z,68.43
2019-01-25T15:19:08.872Z,67.05
2019-01-25T15:24:15.510Z,70.97
2019-01-25T15:29:21.729Z,70.97
2019-01-25T15:34:27.629Z,72.70
2019-01-25T15:39:33.622Z,62.37
2019-01-25T15:44:40.025Z,54.10
2019-01-25T15:49:45.971Z,66.17
2019-01-25T15:54:51.750Z,62.03
2019-01-25T15:59:58.426Z,84.23
2019-01-25T16:05:09.574Z,75.10
2019-01-25T16:10:17.449Z,57.10
2019-01-25T16:15:25.795Z,63.77
2019-01-25T16:20:31.512Z,64.50
2019-01-25T16:25:37.493Z,62.97
2019-01-25T16:30:43.707Z,63.80
2019-01-25T16:35:49.521Z,67.37
2019-01-25T16:40:55.677Z,72.17
2019-01-25T16:46:01.850Z,60.60
2019-01-25T16:51:07.736Z,69.00
2019-01-25T16:56:13.620Z,92.87
2019-01-25T17:01:19.463Z,222.70
2019-01-25T17:06:25.192Z,92.27
2019-01-25T17:11:30.969Z,145.60
2019-01-25T17:16:36.703Z,98.03
2019-01-25T17:21:42.521Z,122.07
2019-01-25T17:26:48.647Z,91.37
2019-01-25T17:31:54.297Z,135.17
2019-01-25T17:37:00.141Z,118.23
2019-01-25T17:42:05.970Z,255.53
2019-01-25T17:47:11.746Z,274.37
2019-01-25T17:52:17.608Z,160.70
2019-01-25T17:57:23.346Z,120.82
2019-01-25T18:02:30.226Z,94.10
2019-01-25T18:07:35.984Z,92.77
2019-01-25T18:12:41.751Z,88.03
2019-01-25T18:17:47.547Z,97.17
2019-01-25T18:22:53.704Z,88.30
2019-01-25T18:28:04.779Z,104.43
2019-01-25T18:33:10.790Z,160.60
2019-01-25T18:38:16.675Z,204.03
2019-01-25T18:43:22.548Z,111.57
2019-01-25T18:48:29.456Z,126.63
2019-01-25T18:53:35.356Z,118.60
2019-01-25T18:58:41.166Z,110.90
2019-01-25T19:03:47.128Z,108.07
2019-01-25T19:08:53.125Z,93.50
2019-01-25T19:13:58.926Z,84.67
2019-01-25T19:19:05.734Z,206.38
2019-01-25T19:24:11.888Z,138.15
2019-01-25T19:29:18.050Z,74.87
2019-01-25T19:34:23.851Z,78.13
2019-01-25T19:39:29.640Z,90.15
2019-01-25T19:44:35.889Z,81.03
2019-01-25T19:49:41.875Z,70.67
2019-01-25T19:54:47.902Z,80.33
2019-01-25T19:59:53.832Z,61.60
2019-01-25T20:05:01.193Z,65.17
2019-01-25T20:10:11.196Z,67.40
2019-01-25T20:15:20.497Z,76.77
2019-01-25T20:20:29.576Z,76.93
2019-01-25T20:25:35.863Z,71.13
2019-01-25T20:30:49.426Z,94.83
2019-01-25T20:35:49.821Z,82.63
2019-01-25T20:40:55.911Z,143.80
2019-01-25T20:46:02.076Z,126.57
2019-01-25T20:51:07.892Z,101.10
2019-01-25T20:56:14.057Z,91.72
2019-01-25T21:01:22.616Z,96.00
2019-01-25T21:06:28.393Z,98.30
2019-01-25T21:11:34.115Z,96.13
2019-01-25T21:16:40.133Z,101.50
2019-01-25T21:21:45.962Z,106.57
2019-01-25T21:26:51.690Z,121.00
2019-01-25T21:31:57.500Z,138.32
2019-01-25T21:37:03.480Z,124.07
2019-01-25T21:42:09.400Z,136.73
2019-01-25T21:47:15.358Z,149.97
2019-01-25T21:52:21.360Z,129.23
2019-01-25T21:57:27.112Z,127.17
2019-01-25T22:02:33.024Z,126.23
2019-01-25T22:07:38.776Z,143.15
2019-01-25T22:12:44.468Z,116.30
2019-01-25T22:17:50.292Z,129.27
2019-01-25T22:22:55.984Z,129.50
2019-01-25T22:28:01.739Z,127.17
2019-01-25T22:33:07.403Z,108.27
2019-01-25T22:38:13.164Z,140.33
2019-01-25T22:43:19.039Z,117.80
2019-01-25T22:48:24.736Z,117.27
2019-01-25T22:53:30.474Z,126.47
2019-01-25T22:58:36.172Z,119.60
2019-01-25T23:03:45.319Z,113.27
2019-01-25T23:08:51.085Z,114.90
2019-01-25T23:13:57.229Z,119.53
2019-01-25T23:19:03.054Z,129.57
2019-01-25T23:24:09.113Z,130.80
2019-01-25T23:29:14.997Z,119.17
2019-01-25T23:34:21.049Z,122.72
2019-01-25T23:39:26.948Z,121.97
2019-01-25T23:44:32.637Z,117.33
2019-01-25T23:49:38.370Z,124.50
2019-01-25T23:54:44.060Z,128.37
2019-01-25T23:59:50.578Z,118.43
